Time,TemperatureF,DewpointF,PressureIn,WindDirection,WindDirectionDegrees,WindSpeedMPH,WindSpeedGustMPH,Humidity,HourlyPrecipIn,Conditions,Clouds,dailyrainin,SoftwareType,DateUTC
2013-03-16 00:02:00,38.0,36.0,-100.00,NNW,330,17.0,21.0,91,-99.99,,,-99.99,,2013-03-16 05:02:00,
2013-03-16 00:12:00,38.0,35.0,-100.00,NNW,335,13.0,15.0,90,-99.99,,,-99.99,,2013-03-16 05:12:00,
2013-03-16 00:21:00,37.0,34.0,-100.00,NNW,330,18.0,23.0,90,-99.99,,,-99.99,,2013-03-16 05:21:00,
2013-03-16 00:32:00,36.0,34.0,-100.00,NNW,335,14.0,17.0,90,-99.99,,,-99.99,,2013-03-16 05:32:00,
2013-03-16 00:42:00,36.0,34.0,-100.00,NNW,335,14.0,17.0,90,-99.99,,,-99.99,,2013-03-16 05:42:00,
2013-03-16 00:52:00,36.0,34.0,-100.00,NNW,330,9.0,11.0,90,-99.99,,,-99.99,,2013-03-16 05:52:00,
2013-03-16 01:02:00,36.0,34.0,-100.00,NNW,330,9.0,11.0,90,-99.99,,,-99.99,,2013-03-16 06:02:00,
2013-03-16 01:12:00,36.0,34.0,-100.00,NW,325,13.0,14.0,90,-99.99,,,-99.99,,2013-03-16 06:12:00,
2013-03-16 01:22:00,36.0,33.0,-100.00,NW,320,12.0,16.0,90,-99.99,,,-99.99,,2013-03-16 06:22:00,
2013-03-16 01:32:00,36.0,33.0,-100.00,NNW,340,14.0,17.0,90,-99.99,,,-99.99,,2013-03-16 06:32:00,
2013-03-16 01:42:00,36.0,33.0,-100.00,NNW,340,14.0,17.0,90,-99.99,,,-99.99,,2013-03-16 06:42:00,
2013-03-16 01:52:00,36.0,33.0,-100.00,NW,325,12.0,14.0,90,-99.99,,,-99.99,,2013-03-16 06:52:00,
2013-03-16 02:02:00,36.0,33.0,-100.00,NW,325,12.0,14.0,90,-99.99,,,-99.99,,2013-03-16 07:02:00,
2013-03-16 02:12:00,36.0,33.0,-100.00,NW,320,15.0,16.0,90,-99.99,,,-99.99,,2013-03-16 07:12:00,
2013-03-16 02:22:00,36.0,33.0,-100.00,NW,320,12.0,16.0,90,-99.99,,,-99.99,,2013-03-16 07:22:00,
2013-03-16 02:32:00,36.0,33.0,-100.00,NW,320,15.0,17.0,90,-99.99,,,-99.99,,2013-03-16 07:32:00,
2013-03-16 02:42:00,36.0,33.0,-100.00,NW,320,15.0,17.0,90,-99.99,,,-99.99,,2013-03-16 07:42:00,
2013-03-16 02:52:00,35.0,33.0,-100.00,NW,320,17.0,19.0,90,-99.99,,,-99.99,,2013-03-16 07:52:00,
2013-03-16 03:02:00,35.0,33.0,-100.00,NW,320,17.0,19.0,90,-99.99,,,-99.99,,2013-03-16 08:02:00,
2013-03-16 03:12:00,35.0,33.0,-100.00,NNW,330,19.0,21.0,90,-99.99,,,-99.99,,2013-03-16 08:12:00,
2013-03-16 03:23:00,35.0,32.0,-100.00,NNW,340,14.0,16.0,90,-99.99,,,-99.99,,2013-03-16 08:23:00,
2013-03-16 03:32:00,35.0,33.0,-100.00,NW,320,16.0,20.0,91,-99.99,,,-99.99,,2013-03-16 08:32:00,
2013-03-16 03:42:00,35.0,33.0,-100.00,NW,320,16.0,20.0,91,-99.99,,,-99.99,,2013-03-16 08:42:00,
2013-03-16 03:52:00,35.0,33.0,-100.00,NW,325,15.0,16.0,91,-99.99,,,-99.99,,2013-03-16 08:52:00,
2013-03-16 04:01:00,35.0,33.0,-100.00,NW,325,15.0,16.0,91,-99.99,,,-99.99,,2013-03-16 09:01:00,
2013-03-16 04:12:00,35.0,33.0,-100.00,NW,325,15.0,16.0,91,-99.99,,,-99.99,,2013-03-16 09:12:00,
2013-03-16 04:22:00,35.0,33.0,-100.00,NNW,335,14.0,16.0,91,-99.99,,,-99.99,,2013-03-16 09:22:00,
2013-03-16 04:33:00,35.0,33.0,-100.00,NW,325,21.0,22.0,92,-99.99,,,-99.99,,2013-03-16 09:33:00,
2013-03-16 04:42:00,35.0,33.0,-100.00,NW,325,21.0,22.0,92,-99.99,,,-99.99,,2013-03-16 09:42:00,
2013-03-16 04:53:00,35.0,33.0,-100.00,NW,325,17.0,19.0,92,-99.99,,,-99.99,,2013-03-16 09:53:00,
2013-03-16 05:03:00,35.0,33.0,-100.00,NW,325,17.0,19.0,92,-99.99,,,-99.99,,2013-03-16 10:03:00,
2013-03-16 05:12:00,35.0,33.0,-100.00,NNW,335,20.0,24.0,92,-99.99,,,-99.99,,2013-03-16 10:12:00,
2013-03-16 05:22:00,35.0,33.0,-100.00,NNW,335,22.0,24.0,92,-99.99,,,-99.99,,2013-03-16 10:22:00,
2013-03-16 05:32:00,35.0,32.0,-100.00,NW,320,17.0,21.0,91,-99.99,,,-99.99,,2013-03-16 10:32:00,
2013-03-16 05:42:00,35.0,32.0,-100.00,NW,320,17.0,21.0,91,-99.99,,,-99.99,,2013-03-16 10:42:00,
2013-03-16 05:52:00,35.0,32.0,-100.00,NNW,330,21.0,23.0,90,-99.99,,,-99.99,,2013-03-16 10:52:00,
2013-03-16 06:03:00,35.0,32.0,-100.00,NNW,330,21.0,23.0,90,-99.99,,,-99.99,,2013-03-16 11:03:00,
2013-03-16 06:12:00,35.0,32.0,-100.00,NNW,330,21.0,23.0,90,-99.99,,,-99.99,,2013-03-16 11:12:00,
2013-03-16 06:22:00,35.0,31.0,-100.00,NW,320,20.0,21.0,86,-99.99,,,-99.99,,2013-03-16 11:22:00,
2013-03-16 06:32:00,35.0,30.0,-100.00,NW,320,21.0,26.0,84,-99.99,,,-99.99,,2013-03-16 11:32:00,
2013-03-16 06:42:00,35.0,30.0,-100.00,NW,320,21.0,26.0,84,-99.99,,,-99.99,,2013-03-16 11:42:00,
2013-03-16 06:52:00,35.0,29.0,-100.00,NNW,335,23.0,26.0,81,-99.99,,,-99.99,,2013-03-16 11:52:00,
2013-03-16 07:02:00,35.0,29.0,-100.00,NNW,335,23.0,26.0,81,-99.99,,,-99.99,,2013-03-16 12:02:00,
2013-03-16 07:12:00,35.0,29.0,-100.00,NW,325,15.0,16.0,80,-99.99,,,-99.99,,2013-03-16 12:12:00,
2013-03-16 07:22:00,35.0,29.0,-100.00,NW,320,12.0,16.0,81,-99.99,,,-99.99,,2013-03-16 12:22:00,
2013-03-16 07:32:00,34.0,29.0,-100.00,NNW,345,19.0,24.0,81,-99.99,,,-99.99,,2013-03-16 12:32:00,
2013-03-16 07:42:00,34.0,29.0,-100.00,NNW,345,19.0,24.0,81,-99.99,,,-99.99,,2013-03-16 12:42:00,
2013-03-16 07:52:00,34.0,28.0,-100.00,NNW,335,16.0,19.0,80,-99.99,,,-99.99,,2013-03-16 12:52:00,
2013-03-16 08:02:00,34.0,28.0,-100.00,NNW,335,16.0,19.0,80,-99.99,,,-99.99,,2013-03-16 13:02:00,
2013-03-16 08:12:00,34.0,28.0,-100.00,NNW,335,16.0,19.0,80,-99.99,,,-99.99,,2013-03-16 13:12:00,
2013-03-16 08:22:00,34.0,28.0,-100.00,NNW,335,15.0,18.0,80,-99.99,,,-99.99,,2013-03-16 13:22:00,
2013-03-16 08:32:00,34.0,28.0,-100.00,North,350,15.0,18.0,79,-99.99,,,-99.99,,2013-03-16 13:32:00,
2013-03-16 08:42:00,34.0,28.0,-100.00,North,350,15.0,18.0,79,-99.99,,,-99.99,,2013-03-16 13:42:00,
2013-03-16 08:53:00,33.0,26.0,-100.00,NNW,335,17.0,19.0,75,-99.99,,,-99.99,,2013-03-16 13:53:00,
2013-03-16 09:02:00,33.0,26.0,-100.00,NNW,335,17.0,19.0,75,-99.99,,,-99.99,,2013-03-16 14:02:00,
2013-03-16 09:12:00,33.0,26.0,-100.00,NNW,335,18.0,22.0,73,-99.99,,,-99.99,,2013-03-16 14:12:00,
2013-03-16 09:22:00,33.0,25.0,-100.00,NNW,330,19.0,22.0,72,-99.99,,,-99.99,,2013-03-16 14:22:00,
2013-03-16 09:32:00,33.0,24.0,-100.00,North,355,15.0,17.0,68,-99.99,,,-99.99,,2013-03-16 14:32:00,
2013-03-16 09:42:00,33.0,24.0,-100.00,North,355,15.0,17.0,68,-99.99,,,-99.99,,2013-03-16 14:42:00,
2013-03-16 09:52:00,33.0,22.0,-100.00,North,0,18.0,21.0,65,-99.99,,,-99.99,,2013-03-16 14:52:00,
2013-03-16 10:02:00,33.0,22.0,-100.00,North,0,18.0,21.0,65,-99.99,,,-99.99,,2013-03-16 15:02:00,
2013-03-16 10:12:00,32.0,22.0,-100.00,North,0,21.0,24.0,66,-99.99,,,-99.99,,2013-03-16 15:12:00,
2013-03-16 10:22:00,32.0,21.0,-100.00,North,10,21.0,25.0,66,-99.99,,,-99.99,,2013-03-16 15:22:00,
2013-03-16 10:33:00,32.0,22.0,-100.00,North,0,17.0,21.0,67,-99.99,,,-99.99,,2013-03-16 15:33:00,
2013-03-16 10:43:00,32.0,22.0,-100.00,North,0,17.0,21.0,67,-99.99,,,-99.99,,2013-03-16 15:43:00,
2013-03-16 10:52:00,31.0,21.0,-100.00,North,0,24.0,27.0,66,-99.99,,,-99.99,,2013-03-16 15:52:00,
2013-03-16 11:03:00,31.0,21.0,-100.00,North,0,24.0,27.0,66,-99.99,,,-99.99,,2013-03-16 16:03:00,
2013-03-16 11:12:00,32.0,21.0,-100.00,North,0,15.0,19.0,66,-99.99,,,-99.99,,2013-03-16 16:12:00,
2013-03-16 11:22:00,31.0,21.0,-100.00,North,350,17.0,22.0,66,-99.99,,,-99.99,,2013-03-16 16:22:00,
2013-03-16 11:33:00,32.0,21.0,-100.00,North,0,17.0,21.0,64,-99.99,,,-99.99,,2013-03-16 16:33:00,
2013-03-16 11:42:00,32.0,21.0,-100.00,North,0,17.0,21.0,64,-99.99,,,-99.99,,2013-03-16 16:42:00,
2013-03-16 11:52:00,31.0,20.0,-100.00,NNW,340,16.0,18.0,64,-99.99,,,-99.99,,2013-03-16 16:52:00,
2013-03-16 12:03:00,31.0,20.0,-100.00,NNW,340,16.0,18.0,64,-99.99,,,-99.99,,2013-03-16 17:03:00,
2013-03-16 12:12:00,32.0,20.0,-100.00,North,0,15.0,19.0,63,-99.99,,,-99.99,,2013-03-16 17:12:00,
2013-03-16 12:22:00,32.0,20.0,-100.00,North,0,14.0,19.0,63,-99.99,,,-99.99,,2013-03-16 17:22:00,
2013-03-16 12:32:00,33.0,20.0,-100.00,North,0,16.0,21.0,59,-99.99,,,-99.99,,2013-03-16 17:32:00,
2013-03-16 12:42:00,33.0,20.0,-100.00,North,0,16.0,21.0,59,-99.99,,,-99.99,,2013-03-16 17:42:00,
2013-03-16 12:52:00,33.0,19.0,-100.00,North,5,11.0,14.0,56,-99.99,,,-99.99,,2013-03-16 17:52:00,
2013-03-16 13:02:00,33.0,19.0,-100.00,North,5,11.0,14.0,56,-99.99,,,-99.99,,2013-03-16 18:02:00,
2013-03-16 13:13:00,33.0,18.0,-100.00,North,5,18.0,22.0,56,-99.99,,,-99.99,,2013-03-16 18:13:00,
2013-03-16 13:22:00,33.0,18.0,-100.00,North,5,18.0,22.0,56,-99.99,,,-99.99,,2013-03-16 18:22:00,
2013-03-16 13:33:00,34.0,17.0,-100.00,North,0,19.0,21.0,50,-99.99,,,-99.99,,2013-03-16 18:33:00,
2013-03-16 13:42:00,34.0,17.0,-100.00,North,0,19.0,21.0,50,-99.99,,,-99.99,,2013-03-16 18:42:00,
2013-03-16 13:52:00,33.0,18.0,-100.00,North,0,19.0,21.0,53,-99.99,,,-99.99,,2013-03-16 18:52:00,
2013-03-16 14:02:00,33.0,18.0,-100.00,North,0,19.0,21.0,53,-99.99,,,-99.99,,2013-03-16 19:02:00,
2013-03-16 14:12:00,34.0,19.0,-100.00,NNW,345,18.0,24.0,55,-99.99,,,-99.99,,2013-03-16 19:12:00,
2013-03-16 14:22:00,35.0,19.0,-100.00,North,0,7.0,8.0,52,-99.99,,,-99.99,,2013-03-16 19:22:00,
2013-03-16 14:32:00,35.0,18.0,-100.00,North,0,9.0,14.0,50,-99.99,,,-99.99,,2013-03-16 19:32:00,
2013-03-16 14:42:00,35.0,18.0,-100.00,North,0,9.0,14.0,50,-99.99,,,-99.99,,2013-03-16 19:42:00,
2013-03-16 14:52:00,35.0,17.0,-100.00,North,350,19.0,24.0,48,-99.99,,,-99.99,,2013-03-16 19:52:00,
2013-03-16 15:02:00,35.0,17.0,-100.00,North,350,19.0,24.0,48,-99.99,,,-99.99,,2013-03-16 20:02:00,
2013-03-16 15:12:00,35.0,18.0,-100.00,North,0,11.0,14.0,50,-99.99,,,-99.99,,2013-03-16 20:12:00,
2013-03-16 15:22:00,35.0,18.0,-100.00,North,0,12.0,17.0,50,-99.99,,,-99.99,,2013-03-16 20:22:00,
2013-03-16 15:32:00,34.0,17.0,-100.00,North,0,13.0,16.0,50,-99.99,,,-99.99,,2013-03-16 20:32:00,
2013-03-16 15:42:00,34.0,17.0,-100.00,North,0,13.0,16.0,50,-99.99,,,-99.99,,2013-03-16 20:42:00,
2013-03-16 15:52:00,34.0,17.0,-100.00,North,5,13.0,17.0,50,-99.99,,,-99.99,,2013-03-16 20:52:00,
2013-03-16 16:02:00,34.0,17.0,-100.00,North,5,13.0,17.0,50,-99.99,,,-99.99,,2013-03-16 21:02:00,
2013-03-16 16:12:00,34.0,18.0,-100.00,North,0,11.0,13.0,51,-99.99,,,-99.99,,2013-03-16 21:12:00,
2013-03-16 16:22:00,35.0,18.0,-100.00,North,355,13.0,16.0,51,-99.99,,,-99.99,,2013-03-16 21:22:00,
2013-03-16 16:32:00,33.0,17.0,-100.00,NNE,20,14.0,19.0,52,-99.99,,,-99.99,,2013-03-16 21:32:00,
2013-03-16 16:43:00,33.0,17.0,-100.00,NNE,20,14.0,19.0,52,-99.99,,,-99.99,,2013-03-16 21:43:00,
2013-03-16 16:52:00,33.0,17.0,-100.00,NNW,345,14.0,17.0,52,-99.99,,,-99.99,,2013-03-16 21:52:00,
2013-03-16 17:03:00,33.0,17.0,-100.00,NNW,345,14.0,17.0,52,-99.99,,,-99.99,,2013-03-16 22:03:00,
2013-03-16 17:12:00,33.0,17.0,-100.00,NNW,345,15.0,17.0,53,-99.99,,,-99.99,,2013-03-16 22:12:00,
2013-03-16 17:22:00,32.0,17.0,-100.00,North,5,12.0,14.0,53,-99.99,,,-99.99,,2013-03-16 22:22:00,
2013-03-16 17:33:00,32.0,17.0,-100.00,NNE,30,11.0,14.0,54,-99.99,,,-99.99,,2013-03-16 22:33:00,
2013-03-16 17:42:00,32.0,17.0,-100.00,NNE,30,11.0,14.0,54,-99.99,,,-99.99,,2013-03-16 22:42:00,
2013-03-16 17:52:00,31.0,17.0,-100.00,North,0,13.0,15.0,55,-99.99,,,-99.99,,2013-03-16 22:52:00,
2013-03-16 18:02:00,31.0,17.0,-100.00,North,0,13.0,15.0,55,-99.99,,,-99.99,,2013-03-16 23:02:00,
2013-03-16 18:12:00,31.0,17.0,-100.00,North,0,7.0,8.0,55,-99.99,,,-99.99,,2013-03-16 23:12:00,
2013-03-16 18:22:00,31.0,17.0,-100.00,North,350,11.0,12.0,55,-99.99,,,-99.99,,2013-03-16 23:22:00,
2013-03-16 18:33:00,31.0,17.0,-100.00,North,350,11.0,14.0,57,-99.99,,,-99.99,,2013-03-16 23:33:00,
2013-03-16 18:42:00,31.0,17.0,-100.00,North,350,11.0,14.0,57,-99.99,,,-99.99,,2013-03-16 23:42:00,
2013-03-16 18:52:00,30.0,17.0,-100.00,North,355,12.0,14.0,59,-99.99,,,-99.99,,2013-03-16 23:52:00,
2013-03-16 19:01:00,30.0,17.0,-100.00,North,355,12.0,14.0,59,-99.99,,,-99.99,,2013-03-17 00:01:00,
2013-03-16 19:12:00,30.0,17.0,-100.00,NNW,345,14.0,16.0,59,-99.99,,,-99.99,,2013-03-17 00:12:00,
2013-03-16 19:22:00,30.0,17.0,-100.00,North,350,14.0,15.0,60,-99.99,,,-99.99,,2013-03-17 00:22:00,
2013-03-16 19:32:00,29.0,17.0,-100.00,North,350,11.0,12.0,61,-99.99,,,-99.99,,2013-03-17 00:32:00,
2013-03-16 19:42:00,29.0,17.0,-100.00,North,350,11.0,12.0,61,-99.99,,,-99.99,,2013-03-17 00:42:00,
2013-03-16 19:52:00,29.0,17.0,-100.00,North,350,12.0,14.0,61,-99.99,,,-99.99,,2013-03-17 00:52:00,
2013-03-16 20:02:00,29.0,17.0,-100.00,North,350,12.0,14.0,61,-99.99,,,-99.99,,2013-03-17 01:02:00,
2013-03-16 20:12:00,29.0,17.0,-100.00,North,10,12.0,14.0,61,-99.99,,,-99.99,,2013-03-17 01:12:00,
2013-03-16 20:22:00,29.0,17.0,-100.00,North,0,12.0,14.0,61,-99.99,,,-99.99,,2013-03-17 01:22:00,
2013-03-16 20:32:00,28.0,17.0,-100.00,NNE,15,10.0,13.0,62,-99.99,,,-99.99,,2013-03-17 01:32:00,
2013-03-16 20:42:00,28.0,17.0,-100.00,NNE,15,10.0,13.0,62,-99.99,,,-99.99,,2013-03-17 01:42:00,
2013-03-16 20:52:00,28.0,17.0,-100.00,North,0,12.0,14.0,62,-99.99,,,-99.99,,2013-03-17 01:52:00,
2013-03-16 21:02:00,28.0,17.0,-100.00,North,0,12.0,14.0,62,-99.99,,,-99.99,,2013-03-17 02:02:00,
2013-03-16 21:12:00,28.0,17.0,-100.00,North,0,10.0,13.0,62,-99.99,,,-99.99,,2013-03-17 02:12:00,
2013-03-16 21:22:00,28.0,17.0,-100.00,North,0,9.0,11.0,62,-99.99,,,-99.99,,2013-03-17 02:22:00,
2013-03-16 21:33:00,28.0,17.0,-100.00,North,355,9.0,11.0,63,-99.99,,,-99.99,,2013-03-17 02:33:00,
2013-03-16 21:42:00,28.0,17.0,-100.00,North,355,9.0,11.0,63,-99.99,,,-99.99,,2013-03-17 02:42:00,
2013-03-16 21:52:00,28.0,17.0,-100.00,NNW,345,10.0,12.0,63,-99.99,,,-99.99,,2013-03-17 02:52:00,
2013-03-16 22:02:00,28.0,17.0,-100.00,NNW,345,10.0,12.0,63,-99.99,,,-99.99,,2013-03-17 03:02:00,
2013-03-16 22:12:00,28.0,17.0,-100.00,NNW,340,9.0,10.0,63,-99.99,,,-99.99,,2013-03-17 03:12:00,
2013-03-16 22:22:00,28.0,17.0,-100.00,NNW,345,10.0,11.0,64,-99.99,,,-99.99,,2013-03-17 03:22:00,
2013-03-16 22:33:00,28.0,17.0,-100.00,North,355,9.0,11.0,63,-99.99,,,-99.99,,2013-03-17 03:33:00,
2013-03-16 22:43:00,28.0,17.0,-100.00,North,355,9.0,11.0,63,-99.99,,,-99.99,,2013-03-17 03:43:00,
2013-03-16 22:52:00,28.0,17.0,-100.00,NNW,340,11.0,13.0,63,-99.99,,,-99.99,,2013-03-17 03:52:00,
2013-03-16 23:03:00,28.0,17.0,-100.00,NNW,340,11.0,13.0,63,-99.99,,,-99.99,,2013-03-17 04:03:00,
2013-03-16 23:12:00,28.0,17.0,-100.00,North,0,12.0,14.0,63,-99.99,,,-99.99,,2013-03-17 04:12:00,
2013-03-16 23:23:00,28.0,17.0,-100.00,North,355,13.0,14.0,63,-99.99,,,-99.99,,2013-03-17 04:23:00,
2013-03-16 23:32:00,28.0,17.0,-100.00,North,0,9.0,10.0,64,-99.99,,,-99.99,,2013-03-17 04:32:00,
2013-03-16 23:42:00,28.0,17.0,-100.00,North,0,9.0,10.0,64,-99.99,,,-99.99,,2013-03-17 04:42:00,
2013-03-16 23:53:00,27.0,16.0,-100.00,North,0,12.0,16.0,63,-99.99,,,-99.99,,2013-03-17 04:53:00,